sensor_id;sensor_type;location;lat;lon;timestamp;P1;durP1;ratioP1;P2;durP2;ratioP2
26474;SDS011;14161;52.270;10.334;2022-10-31T00:02:02;7.60;;;2.70;;
26474;SDS011;14161;52.270;10.334;2022-10-31T00:04:27;6.35;;;2.72;;
26474;SDS011;14161;52.270;10.334;2022-10-31T00:06:53;4.32;;;2.33;;
26474;SDS011;14161;52.270;10.334;2022-10-31T00:09:18;7.68;;;2.83;;
26474;SDS011;14161;52.270;10.334;2022-10-31T00:11:44;8.35;;;2.60;;
26474;SDS011;14161;52.270;10.334;2022-10-31T00:14:09;5.15;;;2.63;;
26474;SDS011;14161;52.270;10.334;2022-10-31T00:16:35;5.20;;;2.55;;
26474;SDS011;14161;52.270;10.334;2022-10-31T00:19:01;3.95;;;2.28;;
26474;SDS011;14161;52.270;10.334;2022-10-31T00:21:29;3.63;;;2.30;;
26474;SDS011;14161;52.270;10.334;2022-10-31T00:23:55;7.38;;;2.50;;
26474;SDS011;14161;52.270;10.334;2022-10-31T00:26:20;4.05;;;2.30;;
26474;SDS011;14161;52.270;10.334;2022-10-31T00:28:46;4.10;;;2.53;;
26474;SDS011;14161;52.270;10.334;2022-10-31T00:31:12;6.63;;;2.35;;
26474;SDS011;14161;52.270;10.334;2022-10-31T00:33:38;4.60;;;2.78;;
26474;SDS011;14161;52.270;10.334;2022-10-31T00:36:05;10.85;;;3.33;;
26474;SDS011;14161;52.270;10.334;2022-10-31T00:38:31;9.80;;;2.63;;
26474;SDS011;14161;52.270;10.334;2022-10-31T00:40:57;4.53;;;2.80;;
26474;SDS011;14161;52.270;10.334;2022-10-31T00:43:22;3.88;;;2.50;;
26474;SDS011;14161;52.270;10.334;2022-10-31T00:45:48;7.65;;;2.55;;
26474;SDS011;14161;52.270;10.334;2022-10-31T00:48:13;4.28;;;2.60;;
26474;SDS011;14161;52.270;10.334;2022-10-31T00:50:39;6.10;;;2.70;;
26474;SDS011;14161;52.270;10.334;2022-10-31T00:53:05;6.00;;;2.85;;
26474;SDS011;14161;52.270;10.334;2022-10-31T00:55:30;5.07;;;2.58;;
26474;SDS011;14161;52.270;10.334;2022-10-31T00:57:56;7.53;;;2.92;;
26474;SDS011;14161;52.270;10.334;2022-10-31T01:00:21;5.53;;;2.75;;
26474;SDS011;14161;52.270;10.334;2022-10-31T01:02:47;6.63;;;2.97;;
26474;SDS011;14161;52.270;10.334;2022-10-31T01:05:13;5.35;;;2.60;;
26474;SDS011;14161;52.270;10.334;2022-10-31T01:07:39;4.05;;;2.65;;
26474;SDS011;14161;52.270;10.334;2022-10-31T01:10:08;7.93;;;3.00;;
26474;SDS011;14161;52.270;10.334;2022-10-31T01:12:41;7.00;;;2.88;;
26474;SDS011;14161;52.270;10.334;2022-10-31T01:15:08;5.93;;;2.63;;
26474;SDS011;14161;52.270;10.334;2022-10-31T01:17:35;4.93;;;2.53;;
26474;SDS011;14161;52.270;10.334;2022-10-31T01:20:01;5.00;;;2.17;;
26474;SDS011;14161;52.270;10.334;2022-10-31T01:22:27;4.45;;;2.42;;
26474;SDS011;14161;52.270;10.334;2022-10-31T01:24:52;5.00;;;2.70;;
26474;SDS011;14161;52.270;10.334;2022-10-31T01:27:18;4.85;;;2.85;;
26474;SDS011;14161;52.270;10.334;2022-10-31T01:29:44;7.53;;;3.35;;
26474;SDS011;14161;52.270;10.334;2022-10-31T01:32:10;5.40;;;2.58;;
26474;SDS011;14161;52.270;10.334;2022-10-31T01:34:35;5.43;;;2.83;;
26474;SDS011;14161;52.270;10.334;2022-10-31T01:37:01;13.63;;;2.85;;
26474;SDS011;14161;52.270;10.334;2022-10-31T01:39:26;4.70;;;2.97;;
26474;SDS011;14161;52.270;10.334;2022-10-31T01:41:52;8.02;;;3.58;;
26474;SDS011;14161;52.270;10.334;2022-10-31T01:46:46;4.18;;;2.58;;
26474;SDS011;14161;52.270;10.334;2022-10-31T01:49:37;6.30;;;3.00;;
26474;SDS011;14161;52.270;10.334;2022-10-31T01:52:12;5.95;;;2.90;;
26474;SDS011;14161;52.270;10.334;2022-10-31T01:54:42;3.90;;;2.60;;
26474;SDS011;14161;52.270;10.334;2022-10-31T01:57:12;4.45;;;2.67;;
26474;SDS011;14161;52.270;10.334;2022-10-31T01:59:40;6.82;;;2.88;;
26474;SDS011;14161;52.270;10.334;2022-10-31T02:02:08;5.10;;;2.55;;
26474;SDS011;14161;52.270;10.334;2022-10-31T02:04:34;5.53;;;2.97;;
26474;SDS011;14161;52.270;10.334;2022-10-31T02:07:07;5.65;;;2.92;;
26474;SDS011;14161;52.270;10.334;2022-10-31T02:09:36;7.93;;;3.45;;
26474;SDS011;14161;52.270;10.334;2022-10-31T02:12:02;6.15;;;3.33;;
26474;SDS011;14161;52.270;10.334;2022-10-31T02:14:29;7.25;;;3.90;;
26474;SDS011;14161;52.270;10.334;2022-10-31T02:16:55;5.95;;;4.10;;
26474;SDS011;14161;52.270;10.334;2022-10-31T02:19:33;12.85;;;4.38;;
26474;SDS011;14161;52.270;10.334;2022-10-31T02:22:16;11.57;;;4.22;;
26474;SDS011;14161;52.270;10.334;2022-10-31T02:34:22;6.18;;;3.67;;
26474;SDS011;14161;52.270;10.334;2022-10-31T02:37:13;7.78;;;3.10;;
26474;SDS011;14161;52.270;10.334;2022-10-31T02:39:56;11.07;;;3.95;;
26474;SDS011;14161;52.270;10.334;2022-10-31T02:45:28;6.25;;;4.18;;
26474;SDS011;14161;52.270;10.334;2022-10-31T02:47:58;11.18;;;4.82;;
26474;SDS011;14161;52.270;10.334;2022-10-31T02:50:37;10.55;;;4.22;;
26474;SDS011;14161;52.270;10.334;2022-10-31T02:53:05;12.82;;;5.20;;
26474;SDS011;14161;52.270;10.334;2022-10-31T02:58:02;10.15;;;5.60;;
26474;SDS011;14161;52.270;10.334;2022-10-31T03:00:31;10.93;;;5.70;;
26474;SDS011;14161;52.270;10.334;2022-10-31T03:03:08;12.50;;;6.57;;
26474;SDS011;14161;52.270;10.334;2022-10-31T03:08:35;12.77;;;7.28;;
26474;SDS011;14161;52.270;10.334;2022-10-31T03:11:08;11.68;;;6.65;;
26474;SDS011;14161;52.270;10.334;2022-10-31T03:13:37;13.75;;;6.95;;
26474;SDS011;14161;52.270;10.334;2022-10-31T03:18:50;12.63;;;7.20;;
26474;SDS011;14161;52.270;10.334;2022-10-31T03:21:25;11.45;;;7.13;;
26474;SDS011;14161;52.270;10.334;2022-10-31T03:23:53;11.30;;;7.73;;
26474;SDS011;14161;52.270;10.334;2022-10-31T03:26:19;14.48;;;8.13;;
26474;SDS011;14161;52.270;10.334;2022-10-31T03:28:49;13.02;;;7.97;;
26474;SDS011;14161;52.270;10.334;2022-10-31T03:31:18;18.48;;;8.38;;
26474;SDS011;14161;52.270;10.334;2022-10-31T03:33:47;15.07;;;8.73;;
26474;SDS011;14161;52.270;10.334;2022-10-31T03:36:14;16.80;;;8.02;;
26474;SDS011;14161;52.270;10.334;2022-10-31T03:38:42;18.88;;;9.55;;
26474;SDS011;14161;52.270;10.334;2022-10-31T03:41:10;14.20;;;8.45;;
26474;SDS011;14161;52.270;10.334;2022-10-31T03:43:40;14.95;;;8.77;;
26474;SDS011;14161;52.270;10.334;2022-10-31T03:46:08;14.27;;;7.95;;
26474;SDS011;14161;52.270;10.334;2022-10-31T03:48:33;15.85;;;8.38;;
26474;SDS011;14161;52.270;10.334;2022-10-31T03:51:22;12.77;;;8.07;;
26474;SDS011;14161;52.270;10.334;2022-10-31T03:53:59;16.20;;;8.55;;
26474;SDS011;14161;52.270;10.334;2022-10-31T03:56:35;13.52;;;8.23;;
26474;SDS011;14161;52.270;10.334;2022-10-31T03:59:05;14.50;;;8.18;;
26474;SDS011;14161;52.270;10.334;2022-10-31T04:01:34;13.02;;;7.90;;
26474;SDS011;14161;52.270;10.334;2022-10-31T04:04:03;12.32;;;7.97;;
26474;SDS011;14161;52.270;10.334;2022-10-31T04:06:28;15.25;;;9.23;;
26474;SDS011;14161;52.270;10.334;2022-10-31T04:08:56;13.20;;;8.15;;
26474;SDS011;14161;52.270;10.334;2022-10-31T04:11:25;12.52;;;7.75;;
26474;SDS011;14161;52.270;10.334;2022-10-31T04:14:13;11.07;;;7.90;;
26474;SDS011;14161;52.270;10.334;2022-10-31T04:16:40;12.43;;;8.05;;
26474;SDS011;14161;52.270;10.334;2022-10-31T04:19:07;14.25;;;8.23;;
26474;SDS011;14161;52.270;10.334;2022-10-31T04:21:32;14.15;;;8.68;;
26474;SDS011;14161;52.270;10.334;2022-10-31T04:23:57;15.65;;;9.65;;
26474;SDS011;14161;52.270;10.334;2022-10-31T04:26:26;13.48;;;8.65;;
26474;SDS011;14161;52.270;10.334;2022-10-31T04:28:51;17.85;;;9.00;;
26474;SDS011;14161;52.270;10.334;2022-10-31T04:31:17;16.88;;;8.95;;
26474;SDS011;14161;52.270;10.334;2022-10-31T04:33:44;12.30;;;8.35;;
26474;SDS011;14161;52.270;10.334;2022-10-31T04:36:10;18.30;;;9.88;;
26474;SDS011;14161;52.270;10.334;2022-10-31T04:38:36;14.05;;;8.32;;
26474;SDS011;14161;52.270;10.334;2022-10-31T04:41:08;14.10;;;8.75;;
26474;SDS011;14161;52.270;10.334;2022-10-31T04:43:56;14.70;;;8.85;;
26474;SDS011;14161;52.270;10.334;2022-10-31T04:46:22;12.15;;;9.38;;
26474;SDS011;14161;52.270;10.334;2022-10-31T04:48:47;16.63;;;9.30;;
26474;SDS011;14161;52.270;10.334;2022-10-31T04:51:13;17.30;;;9.88;;
26474;SDS011;14161;52.270;10.334;2022-10-31T04:53:39;14.00;;;8.75;;
26474;SDS011;14161;52.270;10.334;2022-10-31T04:56:22;13.90;;;8.47;;
26474;SDS011;14161;52.270;10.334;2022-10-31T04:58:54;14.63;;;8.48;;
26474;SDS011;14161;52.270;10.334;2022-10-31T05:01:20;14.15;;;8.82;;
26474;SDS011;14161;52.270;10.334;2022-10-31T05:03:47;15.20;;;9.60;;
26474;SDS011;14161;52.270;10.334;2022-10-31T05:06:13;16.17;;;9.77;;
26474;SDS011;14161;52.270;10.334;2022-10-31T05:08:40;16.35;;;9.57;;
26474;SDS011;14161;52.270;10.334;2022-10-31T05:11:07;13.90;;;9.13;;
26474;SDS011;14161;52.270;10.334;2022-10-31T05:13:32;16.02;;;9.25;;
26474;SDS011;14161;52.270;10.334;2022-10-31T05:16:13;17.70;;;9.90;;
26474;SDS011;14161;52.270;10.334;2022-10-31T05:18:57;12.50;;;7.73;;
26474;SDS011;14161;52.270;10.334;2022-10-31T05:21:42;12.00;;;8.43;;
26474;SDS011;14161;52.270;10.334;2022-10-31T05:24:09;13.40;;;9.27;;
26474;SDS011;14161;52.270;10.334;2022-10-31T05:26:35;13.40;;;9.23;;
26474;SDS011;14161;52.270;10.334;2022-10-31T05:29:01;12.98;;;8.98;;
26474;SDS011;14161;52.270;10.334;2022-10-31T05:31:27;13.27;;;9.05;;
26474;SDS011;14161;52.270;10.334;2022-10-31T05:33:53;18.42;;;8.75;;
26474;SDS011;14161;52.270;10.334;2022-10-31T05:36:36;12.73;;;8.47;;
26474;SDS011;14161;52.270;10.334;2022-10-31T05:39:09;14.95;;;9.00;;
26474;SDS011;14161;52.270;10.334;2022-10-31T05:41:40;14.52;;;9.27;;
26474;SDS011;14161;52.270;10.334;2022-10-31T05:44:14;13.73;;;8.88;;
26474;SDS011;14161;52.270;10.334;2022-10-31T05:47:06;14.85;;;9.52;;
26474;SDS011;14161;52.270;10.334;2022-10-31T05:49:50;17.50;;;9.13;;
26474;SDS011;14161;52.270;10.334;2022-10-31T05:52:34;15.27;;;8.50;;
26474;SDS011;14161;52.270;10.334;2022-10-31T05:55:07;15.98;;;8.98;;
26474;SDS011;14161;52.270;10.334;2022-10-31T05:57:33;11.38;;;8.73;;
26474;SDS011;14161;52.270;10.334;2022-10-31T05:59:59;16.88;;;8.70;;
26474;SDS011;14161;52.270;10.334;2022-10-31T06:02:25;14.15;;;8.10;;
26474;SDS011;14161;52.270;10.334;2022-10-31T06:05:11;13.23;;;8.48;;
26474;SDS011;14161;52.270;10.334;2022-10-31T06:07:37;14.77;;;7.88;;
26474;SDS011;14161;52.270;10.334;2022-10-31T06:10:03;12.55;;;8.32;;
26474;SDS011;14161;52.270;10.334;2022-10-31T06:12:30;14.45;;;8.55;;
26474;SDS011;14161;52.270;10.334;2022-10-31T06:15:27;13.45;;;8.10;;
26474;SDS011;14161;52.270;10.334;2022-10-31T06:18:00;15.13;;;8.18;;
26474;SDS011;14161;52.270;10.334;2022-10-31T06:20:28;12.98;;;7.70;;
26474;SDS011;14161;52.270;10.334;2022-10-31T06:23:01;17.08;;;8.05;;
26474;SDS011;14161;52.270;10.334;2022-10-31T06:25:34;15.40;;;9.02;;
26474;SDS011;14161;52.270;10.334;2022-10-31T06:28:01;11.90;;;8.20;;
26474;SDS011;14161;52.270;10.334;2022-10-31T06:30:35;15.77;;;9.15;;
26474;SDS011;14161;52.270;10.334;2022-10-31T06:33:04;10.57;;;7.78;;
26474;SDS011;14161;52.270;10.334;2022-10-31T06:35:34;16.77;;;8.38;;
26474;SDS011;14161;52.270;10.334;2022-10-31T06:38:00;13.25;;;7.57;;
26474;SDS011;14161;52.270;10.334;2022-10-31T06:40:39;13.52;;;7.68;;
26474;SDS011;14161;52.270;10.334;2022-10-31T06:43:15;11.98;;;6.80;;
26474;SDS011;14161;52.270;10.334;2022-10-31T06:45:41;13.00;;;7.75;;
26474;SDS011;14161;52.270;10.334;2022-10-31T06:48:21;10.68;;;7.18;;
26474;SDS011;14161;52.270;10.334;2022-10-31T06:51:05;12.63;;;7.07;;
26474;SDS011;14161;52.270;10.334;2022-10-31T06:53:31;11.02;;;7.50;;
26474;SDS011;14161;52.270;10.334;2022-10-31T06:55:57;12.30;;;8.02;;
26474;SDS011;14161;52.270;10.334;2022-10-31T06:58:22;12.80;;;7.82;;
26474;SDS011;14161;52.270;10.334;2022-10-31T07:00:49;14.05;;;8.38;;
26474;SDS011;14161;52.270;10.334;2022-10-31T09:34:13;16.08;;;10.27;;
26474;SDS011;14161;52.270;10.334;2022-10-31T09:37:16;19.10;;;11.32;;
26474;SDS011;14161;52.270;10.334;2022-10-31T12:25:10;11.93;;;6.55;;
26474;SDS011;14161;52.270;10.334;2022-10-31T12:36:52;15.10;;;5.15;;
26474;SDS011;14161;52.270;10.334;2022-10-31T12:43:05;10.40;;;5.22;;
26474;SDS011;14161;52.270;10.334;2022-10-31T12:45:53;10.73;;;6.10;;
26474;SDS011;14161;52.270;10.334;2022-10-31T12:51:45;9.27;;;5.63;;
26474;SDS011;14161;52.270;10.334;2022-10-31T12:54:25;9.20;;;5.38;;
26474;SDS011;14161;52.270;10.334;2022-10-31T13:00:12;8.23;;;5.28;;
26474;SDS011;14161;52.270;10.334;2022-10-31T13:05:50;6.43;;;4.45;;
26474;SDS011;14161;52.270;10.334;2022-10-31T13:08:23;8.23;;;4.90;;
26474;SDS011;14161;52.270;10.334;2022-10-31T13:13:51;8.02;;;4.80;;
26474;SDS011;14161;52.270;10.334;2022-10-31T13:16:32;8.30;;;4.35;;
26474;SDS011;14161;52.270;10.334;2022-10-31T13:24:40;9.13;;;4.65;;
26474;SDS011;14161;52.270;10.334;2022-10-31T13:27:18;7.60;;;3.78;;
26474;SDS011;14161;52.270;10.334;2022-10-31T13:32:39;6.45;;;3.95;;
26474;SDS011;14161;52.270;10.334;2022-10-31T13:35:12;8.52;;;4.55;;
26474;SDS011;14161;52.270;10.334;2022-10-31T13:38:03;8.52;;;4.10;;
26474;SDS011;14161;52.270;10.334;2022-10-31T13:43:26;7.55;;;4.50;;
26474;SDS011;14161;52.270;10.334;2022-10-31T13:46:02;8.73;;;4.38;;
26474;SDS011;14161;52.270;10.334;2022-10-31T13:50:57;5.65;;;4.20;;
26474;SDS011;14161;52.270;10.334;2022-10-31T13:53:35;8.82;;;5.88;;
26474;SDS011;14161;52.270;10.334;2022-10-31T13:56:22;12.32;;;6.45;;
26474;SDS011;14161;52.270;10.334;2022-10-31T13:59:03;10.70;;;6.53;;
26474;SDS011;14161;52.270;10.334;2022-10-31T14:01:30;11.57;;;6.15;;
26474;SDS011;14161;52.270;10.334;2022-10-31T14:06:36;8.27;;;6.18;;
26474;SDS011;14161;52.270;10.334;2022-10-31T14:09:04;11.80;;;5.90;;
26474;SDS011;14161;52.270;10.334;2022-10-31T14:11:30;10.30;;;5.90;;
26474;SDS011;14161;52.270;10.334;2022-10-31T14:13:55;8.68;;;5.13;;
26474;SDS011;14161;52.270;10.334;2022-10-31T14:16:29;10.90;;;4.57;;
26474;SDS011;14161;52.270;10.334;2022-10-31T14:19:04;9.40;;;3.43;;
26474;SDS011;14161;52.270;10.334;2022-10-31T14:21:37;5.68;;;3.20;;
26474;SDS011;14161;52.270;10.334;2022-10-31T14:24:13;10.95;;;5.95;;
26474;SDS011;14161;52.270;10.334;2022-10-31T14:26:50;13.82;;;7.70;;
26474;SDS011;14161;52.270;10.334;2022-10-31T14:31:43;15.02;;;8.73;;
26474;SDS011;14161;52.270;10.334;2022-10-31T14:39:25;12.07;;;7.68;;
26474;SDS011;14161;52.270;10.334;2022-10-31T14:47:39;15.25;;;8.52;;
26474;SDS011;14161;52.270;10.334;2022-10-31T14:54:32;11.20;;;7.10;;
26474;SDS011;14161;52.270;10.334;2022-10-31T14:57:29;10.32;;;7.15;;
26474;SDS011;14161;52.270;10.334;2022-10-31T15:09:37;13.52;;;7.85;;
26474;SDS011;14161;52.270;10.334;2022-10-31T15:12:50;13.50;;;8.02;;
26474;SDS011;14161;52.270;10.334;2022-10-31T15:15:49;12.57;;;8.00;;
26474;SDS011;14161;52.270;10.334;2022-10-31T15:18:24;13.93;;;8.52;;
26474;SDS011;14161;52.270;10.334;2022-10-31T15:20:54;14.00;;;8.95;;
26474;SDS011;14161;52.270;10.334;2022-10-31T15:24:03;12.60;;;7.43;;
26474;SDS011;14161;52.270;10.334;2022-10-31T15:26:44;15.30;;;8.52;;
26474;SDS011;14161;52.270;10.334;2022-10-31T15:29:15;12.80;;;9.20;;
26474;SDS011;14161;52.270;10.334;2022-10-31T15:31:49;13.73;;;8.55;;
26474;SDS011;14161;52.270;10.334;2022-10-31T15:34:35;15.45;;;9.52;;
26474;SDS011;14161;52.270;10.334;2022-10-31T15:39:42;20.45;;;11.18;;
26474;SDS011;14161;52.270;10.334;2022-10-31T15:42:20;19.95;;;10.20;;
26474;SDS011;14161;52.270;10.334;2022-10-31T15:52:03;13.23;;;8.93;;
26474;SDS011;14161;52.270;10.334;2022-10-31T16:18:16;12.60;;;7.20;;
26474;SDS011;14161;52.270;10.334;2022-10-31T16:21:05;12.48;;;6.63;;
26474;SDS011;14161;52.270;10.334;2022-10-31T16:23:45;11.40;;;6.65;;
26474;SDS011;14161;52.270;10.334;2022-10-31T17:03:27;16.35;;;9.70;;
26474;SDS011;14161;52.270;10.334;2022-10-31T17:10:04;19.90;;;12.33;;
26474;SDS011;14161;52.270;10.334;2022-10-31T17:16:30;31.38;;;17.05;;
26474;SDS011;14161;52.270;10.334;2022-10-31T17:18:55;29.75;;;17.40;;
26474;SDS011;14161;52.270;10.334;2022-10-31T17:21:41;28.73;;;19.20;;
26474;SDS011;14161;52.270;10.334;2022-10-31T17:24:08;40.88;;;21.20;;
26474;SDS011;14161;52.270;10.334;2022-10-31T17:26:36;34.15;;;20.58;;
26474;SDS011;14161;52.270;10.334;2022-10-31T17:29:02;34.08;;;20.23;;
26474;SDS011;14161;52.270;10.334;2022-10-31T17:31:29;33.33;;;20.58;;
26474;SDS011;14161;52.270;10.334;2022-10-31T17:33:56;35.03;;;22.17;;
26474;SDS011;14161;52.270;10.334;2022-10-31T19:22:11;25.92;;;17.73;;
26474;SDS011;14161;52.270;10.334;2022-10-31T19:25:47;23.70;;;15.13;;
26474;SDS011;14161;52.270;10.334;2022-10-31T20:28:08;22.73;;;17.13;;
26474;SDS011;14161;52.270;10.334;2022-10-31T20:30:55;22.88;;;15.18;;
26474;SDS011;14161;52.270;10.334;2022-10-31T20:33:27;22.70;;;16.50;;
26474;SDS011;14161;52.270;10.334;2022-10-31T20:36:03;21.73;;;15.82;;
26474;SDS011;14161;52.270;10.334;2022-10-31T20:38:30;23.42;;;16.45;;
26474;SDS011;14161;52.270;10.334;2022-10-31T20:41:59;20.90;;;15.80;;
26474;SDS011;14161;52.270;10.334;2022-10-31T20:44:29;23.27;;;16.15;;
26474;SDS011;14161;52.270;10.334;2022-10-31T20:47:02;22.13;;;16.08;;
26474;SDS011;14161;52.270;10.334;2022-10-31T20:53:05;21.65;;;14.85;;
26474;SDS011;14161;52.270;10.334;2022-10-31T21:02:52;19.42;;;13.80;;
26474;SDS011;14161;52.270;10.334;2022-10-31T21:33:23;24.90;;;18.35;;
26474;SDS011;14161;52.270;10.334;2022-10-31T21:35:49;26.67;;;17.67;;
26474;SDS011;14161;52.270;10.334;2022-10-31T21:38:16;24.75;;;17.30;;
26474;SDS011;14161;52.270;10.334;2022-10-31T21:40:49;24.50;;;16.83;;
26474;SDS011;14161;52.270;10.334;2022-10-31T21:43:15;26.10;;;17.55;;
26474;SDS011;14161;52.270;10.334;2022-10-31T21:45:40;23.40;;;16.95;;
26474;SDS011;14161;52.270;10.334;2022-10-31T21:48:06;25.73;;;16.67;;
26474;SDS011;14161;52.270;10.334;2022-10-31T21:50:32;23.13;;;16.48;;
26474;SDS011;14161;52.270;10.334;2022-10-31T21:52:58;25.00;;;16.63;;
26474;SDS011;14161;52.270;10.334;2022-10-31T21:55:44;22.70;;;15.88;;
26474;SDS011;14161;52.270;10.334;2022-10-31T21:58:09;21.88;;;15.52;;
26474;SDS011;14161;52.270;10.334;2022-10-31T22:00:35;22.23;;;15.57;;
26474;SDS011;14161;52.270;10.334;2022-10-31T22:03:03;23.30;;;15.65;;
26474;SDS011;14161;52.270;10.334;2022-10-31T22:05:29;23.13;;;15.75;;
26474;SDS011;14161;52.270;10.334;2022-10-31T22:07:54;24.15;;;16.02;;
26474;SDS011;14161;52.270;10.334;2022-10-31T22:10:20;23.75;;;16.13;;
26474;SDS011;14161;52.270;10.334;2022-10-31T22:12:46;20.85;;;15.63;;
26474;SDS011;14161;52.270;10.334;2022-10-31T22:15:11;21.10;;;15.55;;
26474;SDS011;14161;52.270;10.334;2022-10-31T22:17:36;23.55;;;16.05;;
26474;SDS011;14161;52.270;10.334;2022-10-31T22:20:05;22.08;;;16.50;;
26474;SDS011;14161;52.270;10.334;2022-10-31T22:22:41;19.58;;;14.38;;
26474;SDS011;14161;52.270;10.334;2022-10-31T22:25:07;22.30;;;15.60;;
26474;SDS011;14161;52.270;10.334;2022-10-31T22:27:33;25.75;;;16.75;;
26474;SDS011;14161;52.270;10.334;2022-10-31T22:30:08;27.33;;;16.80;;
26474;SDS011;14161;52.270;10.334;2022-10-31T22:32:34;25.95;;;15.57;;
26474;SDS011;14161;52.270;10.334;2022-10-31T22:35:02;26.42;;;18.42;;
26474;SDS011;14161;52.270;10.334;2022-10-31T22:37:28;24.08;;;16.63;;
26474;SDS011;14161;52.270;10.334;2022-10-31T22:39:54;24.77;;;15.57;;
26474;SDS011;14161;52.270;10.334;2022-10-31T22:42:19;24.25;;;16.80;;
26474;SDS011;14161;52.270;10.334;2022-10-31T22:44:45;25.23;;;16.88;;
26474;SDS011;14161;52.270;10.334;2022-10-31T22:47:10;19.77;;;15.18;;
26474;SDS011;14161;52.270;10.334;2022-10-31T22:49:35;23.67;;;16.80;;
26474;SDS011;14161;52.270;10.334;2022-10-31T22:52:09;23.95;;;16.88;;
26474;SDS011;14161;52.270;10.334;2022-10-31T22:54:42;23.52;;;16.67;;
26474;SDS011;14161;52.270;10.334;2022-10-31T22:57:08;21.77;;;16.25;;
26474;SDS011;14161;52.270;10.334;2022-10-31T22:59:33;22.40;;;16.92;;
26474;SDS011;14161;52.270;10.334;2022-10-31T23:04:33;21.80;;;15.93;;
26474;SDS011;14161;52.270;10.334;2022-10-31T23:06:58;23.70;;;17.33;;
26474;SDS011;14161;52.270;10.334;2022-10-31T23:09:27;27.95;;;19.67;;
26474;SDS011;14161;52.270;10.334;2022-10-31T23:12:04;25.45;;;17.83;;
26474;SDS011;14161;52.270;10.334;2022-10-31T23:14:48;25.30;;;17.23;;
26474;SDS011;14161;52.270;10.334;2022-10-31T23:17:14;31.67;;;21.20;;
26474;SDS011;14161;52.270;10.334;2022-10-31T23:19:44;25.92;;;17.58;;
26474;SDS011;14161;52.270;10.334;2022-10-31T23:22:10;26.70;;;18.45;;
26474;SDS011;14161;52.270;10.334;2022-10-31T23:24:37;27.30;;;18.10;;
26474;SDS011;14161;52.270;10.334;2022-10-31T23:27:11;31.30;;;19.92;;
26474;SDS011;14161;52.270;10.334;2022-10-31T23:32:15;25.02;;;16.88;;
26474;SDS011;14161;52.270;10.334;2022-10-31T23:34:49;25.30;;;18.10;;
26474;SDS011;14161;52.270;10.334;2022-10-31T23:37:17;31.35;;;21.27;;
26474;SDS011;14161;52.270;10.334;2022-10-31T23:39:43;27.77;;;18.60;;
26474;SDS011;14161;52.270;10.334;2022-10-31T23:42:09;25.95;;;19.00;;
26474;SDS011;14161;52.270;10.334;2022-10-31T23:44:34;22.38;;;16.65;;
26474;SDS011;14161;52.270;10.334;2022-10-31T23:47:00;26.83;;;18.15;;
26474;SDS011;14161;52.270;10.334;2022-10-31T23:49:25;27.75;;;19.02;;
26474;SDS011;14161;52.270;10.334;2022-10-31T23:52:06;25.95;;;17.00;;
26474;SDS011;14161;52.270;10.334;2022-10-31T23:54:32;26.67;;;17.73;;
26474;SDS011;14161;52.270;10.334;2022-10-31T23:56:58;30.42;;;19.70;;
26474;SDS011;14161;52.270;10.334;2022-10-31T23:59:24;29.02;;;19.42;;
